This is the latest recevied weather packets stored in our database for station/object N6GPM. If no packets are shown the sender has not sent any weather packets the latest 10 day(s).
| Time | Temp. | Humidity | Pressure | Rain* | Wind** | Luminosity | Snow |
|---|---|---|---|---|---|---|---|
| 1777486809 | 21.11° C | 45% | 1019.7 hPa | 0 mm | - | 852 W/m² | - |
| 1777486507 | 21.11° C | 46% | 1019.7 hPa | 0 mm | - | 877 W/m² | - |
| 1777486204 | 20° C | 48% | 1019.9 hPa | 0 mm | - | 873 W/m² | - |
| 1777485902 | 20.56° C | 48% | 1020 hPa | 0 mm | - | 888 W/m² | - |
| 1777485597 | 21.67° C | 45% | 1019.9 hPa | 0 mm | - | 903 W/m² | - |
| 1777485293 | 20.56° C | 47% | 1020.1 hPa | 0 mm | - | 894 W/m² | - |
| 1777484989 | 20° C | 47% | 1020.1 hPa | 0 mm | - | 835 W/m² | - |
| 1777484687 | 20.56° C | 49% | 1020.3 hPa | 0 mm | - | 824 W/m² | - |
| 1777484383 | 19.44° C | 48% | 1020.2 hPa | 0 mm | - | 831 W/m² | - |
| 1777484078 | 18.89° C | 52% | 1020.2 hPa | 0 mm | - | 857 W/m² | - |
| 1777483775 | 19.44° C | 51% | 1020.2 hPa | 0 mm | - | 858 W/m² | - |
| 1777483472 | 19.44° C | 49% | 1020.3 hPa | 0 mm | - | 818 W/m² | - |
| 1777483166 | 18.89° C | 52% | 1020.4 hPa | 0 mm | - | 789 W/m² | - |
| 1777482864 | 18.89° C | 50% | 1020.4 hPa | 0 mm | - | 792 W/m² | - |
| 1777482559 | 17.78° C | 54% | 1020.5 hPa | 0 mm | - | 770 W/m² | - |
| 1777482257 | 17.78° C | 54% | 1020.3 hPa | 0 mm | - | 757 W/m² | - |
| 1777481954 | 17.78° C | 54% | 1020.5 hPa | 0 mm | - | 735 W/m² | - |
| 1777481652 | 17.22° C | 55% | 1020.4 hPa | 0 mm | - | 705 W/m² | - |
| 1777481349 | 17.22° C | 56% | 1020.7 hPa | 0 mm | - | 704 W/m² | - |
| 1777481045 | 17.22° C | 56% | 1020.7 hPa | 0 mm | - | 679 W/m² | - |
| 1777480742 | 17.22° C | 56% | 1020.7 hPa | 0 mm | - | 616 W/m² | - |
| 1777480438 | 17.22° C | 57% | 1020.5 hPa | 0 mm | - | 550 W/m² | - |
| 1777480134 | 17.22° C | 57% | 1020.7 hPa | 0 mm | - | 594 W/m² | - |
| 1777479831 | 17.78° C | 56% | 1020.7 hPa | 0 mm | - | 579 W/m² | - |
| 1777479528 | 17.22° C | 57% | 1020.7 hPa | 0 mm | - | 570 W/m² | - |
* Rain latest hour (hover to see other rain measurements)
** Current wind speed in m/s (hover to see current wind gust speed)